Time;durP1;ratioP1;P1;durP2;ratioP2;P2;SDS_P1;SDS_P2;PMS_P1;PMS_P2;Temp;Humidity;BMP_temperature;BMP_pressure;BME280_temperature;BME280_humidity;BME280_pressure;Samples;Min_cycle;Max_cycle;Signal;HPM_P1;HPM_P2
2023/01/10 00:00:33;;;;;;;;;;;3.60;99.90;;;;;;5017346;28;19929;-72
2023/01/10 00:03:07;;;;;;;;;;;3.60;99.90;;;;;;5003570;28;19940;-73
2023/01/10 00:05:36;;;;;;;;;;;3.60;99.90;;;;;;5002501;28;19937;-73
2023/01/10 00:08:04;;;;;;;;;;;3.60;99.90;;;;;;5020879;28;20016;-72
2023/01/10 00:10:33;;;;;;;;;;;3.70;99.90;;;;;;5005834;28;19925;-73
2023/01/10 00:15:48;;;;;;;;;;;3.70;99.90;;;;;;5004157;28;19957;-72
2023/01/10 00:18:16;;;;;;;;;;;3.70;99.90;;;;;;5016372;28;19930;-72
2023/01/10 00:20:46;;;;;;;;;;;3.70;99.90;;;;;;5018433;28;20060;-72
2023/01/10 00:23:16;;;;;;;;;;;3.70;99.90;;;;;;5001981;28;19931;-72
2023/01/10 00:25:45;;;;;;;;;;;3.60;99.90;;;;;;5009118;28;19968;-72
2023/01/10 00:30:48;;;;;;;;;;;3.60;99.90;;;;;;5044217;28;19933;-73
2023/01/10 00:33:19;;;;;;;;;;;3.60;99.90;;;;;;5031360;28;20339;-73
2023/01/10 00:35:48;;;;;;;;;;;3.60;99.90;;;;;;5007499;28;20595;-72
2023/01/10 00:38:17;;;;;;;;;;;3.60;99.90;;;;;;5022458;28;19932;-72
2023/01/10 00:40:46;;;;;;;;;;;3.50;99.90;;;;;;5014209;28;19980;-73
2023/01/10 00:46:02;;;;;;;;;;;3.50;99.90;;;;;;5021879;28;20012;-72
2023/01/10 00:48:32;;;;;;;;;;;3.40;99.90;;;;;;5014452;28;20465;-73
2023/01/10 00:51:21;;;;;;;;;;;3.50;99.90;;;;;;5006214;28;20010;-72
2023/01/10 00:53:50;;;;;;;;;;;3.50;99.90;;;;;;5003809;28;20025;-72
2023/01/10 00:56:20;;;;;;;;;;;3.50;99.90;;;;;;5007548;28;19929;-72
2023/01/10 00:58:48;;;;;;;;;;;3.50;99.90;;;;;;5014252;28;19969;-72
2023/01/10 01:01:17;;;;;;;;;;;3.50;99.90;;;;;;5001522;28;19929;-73
2023/01/10 01:03:46;;;;;;;;;;;3.50;99.90;;;;;;5009257;28;19936;-73
2023/01/10 01:06:15;;;;;;;;;;;3.50;99.90;;;;;;4989196;28;20008;-72
2023/01/10 01:08:44;;;;;;;;;;;3.50;99.90;;;;;;5007176;28;20093;-72
2023/01/10 01:11:13;;;;;;;;;;;3.50;99.90;;;;;;5006076;28;19937;-73
2023/01/10 01:13:42;;;;;;;;;;;3.50;99.90;;;;;;5019696;28;20016;-73
2023/01/10 01:16:11;;;;;;;;;;;3.50;99.90;;;;;;5021769;28;20277;-73
2023/01/10 01:18:41;;;;;;;;;;;3.40;99.90;;;;;;5008166;28;20051;-73
2023/01/10 01:21:10;;;;;;;;;;;3.40;99.90;;;;;;5017619;28;20437;-73
2023/01/10 01:23:40;;;;;;;;;;;3.40;99.90;;;;;;5022060;28;19961;-73
2023/01/10 01:26:09;;;;;;;;;;;3.40;99.90;;;;;;5008227;28;20028;-74
2023/01/10 01:28:39;;;;;;;;;;;3.40;99.90;;;;;;5024211;28;19929;-73
2023/01/10 01:31:08;;;;;;;;;;;3.40;99.90;;;;;;5005518;28;20338;-73
2023/01/10 01:33:38;;;;;;;;;;;3.30;99.90;;;;;;5018994;28;19925;-73
2023/01/10 01:36:10;;;;;;;;;;;3.30;99.90;;;;;;5002866;28;20484;-73
2023/01/10 01:38:41;;;;;;;;;;;3.30;99.90;;;;;;5005722;28;19925;-73
2023/01/10 01:43:59;;;;;;;;;;;3.20;99.90;;;;;;5024485;28;19934;-73
2023/01/10 01:46:29;;;;;;;;;;;3.20;99.90;;;;;;5021954;28;19968;-73
2023/01/10 01:48:58;;;;;;;;;;;3.20;99.90;;;;;;5007871;28;19926;-73
2023/01/10 01:51:28;;;;;;;;;;;3.30;99.90;;;;;;5007023;28;19933;-73
2023/01/10 01:54:10;;;;;;;;;;;3.30;99.90;;;;;;5004099;28;20020;-72
2023/01/10 01:57:09;;;;;;;;;;;3.30;99.90;;;;;;5022897;28;19925;-73
2023/01/10 01:59:43;;;;;;;;;;;3.30;99.90;;;;;;4995283;28;20400;-73
2023/01/10 02:02:18;;;;;;;;;;;3.30;99.90;;;;;;5004233;28;19965;-73
2023/01/10 02:04:56;;;;;;;;;;;3.30;99.90;;;;;;5022447;28;19932;-73
2023/01/10 02:07:26;;;;;;;;;;;3.30;99.90;;;;;;5007704;28;19930;-73
2023/01/10 02:09:59;;;;;;;;;;;3.30;99.90;;;;;;5019224;28;19926;-73
2023/01/10 02:12:29;;;;;;;;;;;3.30;99.90;;;;;;5004073;28;20336;-73
2023/01/10 02:14:59;;;;;;;;;;;3.30;99.90;;;;;;5021267;28;19926;-72
2023/01/10 02:17:28;;;;;;;;;;;3.30;99.90;;;;;;5019956;28;20299;-71
2023/01/10 02:20:00;;;;;;;;;;;3.40;99.90;;;;;;5007974;28;19926;-73
2023/01/10 02:22:38;;;;;;;;;;;3.40;99.90;;;;;;5009358;28;20028;-73
2023/01/10 02:25:25;;;;;;;;;;;3.40;99.90;;;;;;5027085;28;20281;-73
2023/01/10 02:27:54;;;;;;;;;;;3.40;99.90;;;;;;5007752;28;19976;-73
2023/01/10 02:30:29;;;;;;;;;;;3.40;99.90;;;;;;5004984;28;19933;-73
2023/01/10 02:33:19;;;;;;;;;;;3.40;99.90;;;;;;5010287;28;20040;-73
2023/01/10 02:35:51;;;;;;;;;;;3.40;99.90;;;;;;5006581;28;20300;-73
2023/01/10 02:38:39;;;;;;;;;;;3.40;99.90;;;;;;5018024;28;19929;-73
2023/01/10 02:41:15;;;;;;;;;;;3.50;99.90;;;;;;4999978;28;19930;-73
2023/01/10 02:43:50;;;;;;;;;;;3.50;99.90;;;;;;5008229;28;19932;-73
2023/01/10 02:46:23;;;;;;;;;;;3.50;99.90;;;;;;5008155;28;20048;-73
2023/01/10 02:48:53;;;;;;;;;;;3.50;99.90;;;;;;5009898;28;20306;-72
2023/01/10 02:51:23;;;;;;;;;;;3.50;99.90;;;;;;5004892;28;19929;-73
2023/01/10 02:53:59;;;;;;;;;;;3.50;99.90;;;;;;5009716;28;19983;-73
2023/01/10 02:56:43;;;;;;;;;;;3.50;99.90;;;;;;4990401;28;19926;-73
2023/01/10 02:59:30;;;;;;;;;;;3.60;99.90;;;;;;5007831;28;19934;-73
2023/01/10 03:02:07;;;;;;;;;;;3.60;99.90;;;;;;5003278;28;19929;-73
2023/01/10 03:04:54;;;;;;;;;;;3.60;99.90;;;;;;5005402;28;19926;-73
2023/01/10 03:07:49;;;;;;;;;;;3.50;99.90;;;;;;5009338;28;19926;-71
2023/01/10 03:10:38;;;;;;;;;;;3.60;99.90;;;;;;4997792;28;20019;-72
2023/01/10 03:13:09;;;;;;;;;;;3.60;99.90;;;;;;5005142;28;20282;-71
2023/01/10 03:15:39;;;;;;;;;;;3.60;99.90;;;;;;5022295;28;19984;-72
2023/01/10 03:18:13;;;;;;;;;;;3.50;99.90;;;;;;5024426;28;19925;-71
2023/01/10 03:20:43;;;;;;;;;;;3.60;99.90;;;;;;5007356;28;19929;-73
2023/01/10 03:23:12;;;;;;;;;;;3.50;99.90;;;;;;5025674;28;19925;-72
2023/01/10 03:25:41;;;;;;;;;;;3.50;99.90;;;;;;5010032;28;19926;-70
2023/01/10 03:28:11;;;;;;;;;;;3.50;99.90;;;;;;5015963;28;19913;-74
2023/01/10 03:30:43;;;;;;;;;;;3.60;99.90;;;;;;5028715;28;19933;-71
2023/01/10 03:33:14;;;;;;;;;;;3.50;99.90;;;;;;5046121;28;19968;-74
2023/01/10 03:35:56;;;;;;;;;;;3.50;99.90;;;;;;5017322;28;19948;-71
2023/01/10 03:38:33;;;;;;;;;;;3.50;99.90;;;;;;5024416;28;19934;-73
2023/01/10 03:41:14;;;;;;;;;;;3.50;99.90;;;;;;5024376;28;19925;-71
2023/01/10 03:46:41;;;;;;;;;;;3.50;99.90;;;;;;5024027;28;19926;-72
2023/01/10 03:49:10;;;;;;;;;;;3.40;99.90;;;;;;5020981;28;19925;-73
2023/01/10 03:51:39;;;;;;;;;;;3.40;99.90;;;;;;5008411;28;20032;-72
2023/01/10 03:54:07;;;;;;;;;;;3.40;99.90;;;;;;5022951;28;19961;-71
2023/01/10 03:56:45;;;;;;;;;;;3.40;99.90;;;;;;5006929;28;19925;-71
2023/01/10 03:59:13;;;;;;;;;;;3.50;99.90;;;;;;5007534;28;19925;-71
2023/01/10 04:01:41;;;;;;;;;;;3.50;99.90;;;;;;5018933;28;20084;-72
2023/01/10 04:04:10;;;;;;;;;;;3.50;99.90;;;;;;5007935;28;19925;-71
2023/01/10 04:06:40;;;;;;;;;;;3.50;99.90;;;;;;5017166;28;19930;-72
2023/01/10 04:09:12;;;;;;;;;;;3.50;99.90;;;;;;5003297;28;19936;-73
2023/01/10 04:11:41;;;;;;;;;;;3.50;99.90;;;;;;5001383;28;19937;-71
2023/01/10 04:14:15;;;;;;;;;;;3.50;99.90;;;;;;5022191;28;19926;-73
2023/01/10 04:16:45;;;;;;;;;;;3.50;99.90;;;;;;5015419;28;19929;-75
2023/01/10 04:19:13;;;;;;;;;;;3.50;99.90;;;;;;5002279;28;19979;-72
2023/01/10 04:21:42;;;;;;;;;;;3.50;99.90;;;;;;5016207;28;20294;-71
2023/01/10 04:24:12;;;;;;;;;;;3.50;99.90;;;;;;5007448;28;19941;-72
2023/01/10 04:26:40;;;;;;;;;;;3.50;99.90;;;;;;5009536;28;20402;-72
2023/01/10 04:29:10;;;;;;;;;;;3.50;99.90;;;;;;5024444;28;19929;-71
2023/01/10 04:31:40;;;;;;;;;;;3.40;99.90;;;;;;5005565;28;20572;-71
2023/01/10 04:34:11;;;;;;;;;;;3.40;99.90;;;;;;5010334;28;20404;-70
2023/01/10 04:36:44;;;;;;;;;;;3.50;99.90;;;;;;5020459;28;20604;-71
2023/01/10 04:39:13;;;;;;;;;;;3.40;99.90;;;;;;5008081;28;19926;-73
2023/01/10 04:41:42;;;;;;;;;;;3.40;99.90;;;;;;5021616;28;19932;-71
2023/01/10 04:44:11;;;;;;;;;;;3.50;99.90;;;;;;5022388;28;19925;-73
2023/01/10 04:46:40;;;;;;;;;;;3.50;99.90;;;;;;5003261;28;19930;-72
2023/01/10 04:49:09;;;;;;;;;;;3.40;99.90;;;;;;5021946;28;19933;-71
2023/01/10 04:51:40;;;;;;;;;;;3.40;99.90;;;;;;5023041;28;20447;-72
2023/01/10 04:54:09;;;;;;;;;;;3.40;99.90;;;;;;5022044;28;19929;-74
2023/01/10 04:56:38;;;;;;;;;;;3.40;99.90;;;;;;5007177;28;19925;-72
2023/01/10 04:59:09;;;;;;;;;;;3.40;99.90;;;;;;5020211;28;20454;-71
2023/01/10 05:01:38;;;;;;;;;;;3.40;99.90;;;;;;5007206;28;19933;-71
2023/01/10 05:04:07;;;;;;;;;;;3.40;99.90;;;;;;4991784;28;19948;-71
2023/01/10 05:06:39;;;;;;;;;;;3.40;99.90;;;;;;5003853;28;20406;-72
2023/01/10 05:09:08;;;;;;;;;;;3.50;99.90;;;;;;5006658;28;19925;-71
2023/01/10 05:11:37;;;;;;;;;;;3.50;99.90;;;;;;4987758;28;20478;-71
2023/01/10 05:14:06;;;;;;;;;;;3.40;99.90;;;;;;5024067;28;19926;-77
2023/01/10 05:16:35;;;;;;;;;;;3.50;99.90;;;;;;5021578;28;19964;-70
2023/01/10 05:19:04;;;;;;;;;;;3.50;99.90;;;;;;5005919;28;20016;-71
2023/01/10 05:21:36;;;;;;;;;;;3.50;99.90;;;;;;5006424;28;19926;-73
2023/01/10 05:24:05;;;;;;;;;;;3.50;99.90;;;;;;5024337;28;20097;-71
2023/01/10 05:26:34;;;;;;;;;;;3.50;99.90;;;;;;5005574;28;19925;-74
2023/01/10 05:29:04;;;;;;;;;;;3.50;99.90;;;;;;5003146;28;19932;-71
2023/01/10 05:31:33;;;;;;;;;;;3.50;99.90;;;;;;4998498;28;19938;-71
2023/01/10 05:34:04;;;;;;;;;;;3.40;99.90;;;;;;5021702;28;20300;-71
2023/01/10 05:36:35;;;;;;;;;;;3.40;99.90;;;;;;5002935;28;20205;-71
2023/01/10 05:39:03;;;;;;;;;;;3.40;99.90;;;;;;5007120;28;19936;-72
2023/01/10 05:41:30;;;;;;;;;;;3.40;99.90;;;;;;5002272;28;20001;-71
2023/01/10 05:43:59;;;;;;;;;;;3.40;99.90;;;;;;4995067;28;19926;-71
2023/01/10 05:46:26;;;;;;;;;;;3.40;99.90;;;;;;5006886;28;19926;-72
2023/01/10 05:49:01;;;;;;;;;;;3.40;99.90;;;;;;5001605;28;19925;-71
2023/01/10 05:51:33;;;;;;;;;;;3.40;99.90;;;;;;5003527;28;19925;-72
2023/01/10 05:54:04;;;;;;;;;;;3.40;99.90;;;;;;5021843;28;20024;-71
2023/01/10 05:57:00;;;;;;;;;;;3.40;99.90;;;;;;5006650;28;19992;-71
2023/01/10 05:59:29;;;;;;;;;;;3.40;99.90;;;;;;5023177;28;19932;-72
2023/01/10 06:01:58;;;;;;;;;;;3.30;99.90;;;;;;5000258;28;19973;-73
2023/01/10 06:04:29;;;;;;;;;;;3.40;99.90;;;;;;5021793;28;19981;-70
2023/01/10 06:06:57;;;;;;;;;;;3.40;99.90;;;;;;5006042;28;19933;-70
2023/01/10 06:09:28;;;;;;;;;;;3.40;99.90;;;;;;5005556;28;19925;-72
2023/01/10 06:11:56;;;;;;;;;;;3.40;99.90;;;;;;5016178;28;19933;-70
2023/01/10 06:14:25;;;;;;;;;;;3.40;99.90;;;;;;5025137;28;19926;-70
2023/01/10 06:16:53;;;;;;;;;;;3.40;99.90;;;;;;5005401;28;20344;-71
2023/01/10 06:19:23;;;;;;;;;;;3.40;99.90;;;;;;5007529;28;19934;-71
2023/01/10 06:21:55;;;;;;;;;;;3.40;99.90;;;;;;5006279;28;19935;-72
2023/01/10 06:24:24;;;;;;;;;;;3.40;99.90;;;;;;5021849;28;19926;-73
2023/01/10 06:26:54;;;;;;;;;;;3.40;99.90;;;;;;5001483;28;19909;-75
2023/01/10 06:29:23;;;;;;;;;;;3.40;99.90;;;;;;5026040;28;19925;-71
2023/01/10 06:31:53;;;;;;;;;;;3.40;99.90;;;;;;5005377;28;19952;-72
2023/01/10 06:34:22;;;;;;;;;;;3.40;99.90;;;;;;5002899;28;19925;-73
2023/01/10 06:36:51;;;;;;;;;;;3.40;99.90;;;;;;5006101;28;19969;-72
2023/01/10 06:39:21;;;;;;;;;;;3.30;99.90;;;;;;5006408;28;19933;-72
2023/01/10 06:41:51;;;;;;;;;;;3.30;99.90;;;;;;5004637;28;20052;-71
2023/01/10 06:44:20;;;;;;;;;;;3.40;99.90;;;;;;5007294;28;19926;-71
2023/01/10 06:46:50;;;;;;;;;;;3.40;99.90;;;;;;5023263;28;20624;-75
2023/01/10 06:49:19;;;;;;;;;;;3.40;99.90;;;;;;5005503;28;20021;-71
2023/01/10 06:51:48;;;;;;;;;;;3.40;99.90;;;;;;5004845;28;20034;-72
2023/01/10 06:54:19;;;;;;;;;;;3.40;99.90;;;;;;5008090;28;20016;-71
2023/01/10 06:56:49;;;;;;;;;;;3.30;99.90;;;;;;5015908;28;19926;-73
2023/01/10 06:59:20;;;;;;;;;;;3.30;99.90;;;;;;5006680;28;19969;-72
2023/01/10 07:01:48;;;;;;;;;;;3.30;99.90;;;;;;5017249;28;20302;-72
2023/01/10 07:04:17;;;;;;;;;;;3.30;99.90;;;;;;5012865;28;19925;-72
2023/01/10 07:06:51;;;;;;;;;;;3.30;99.90;;;;;;5006724;28;19926;-72
2023/01/10 07:09:36;;;;;;;;;;;3.30;99.90;;;;;;5003637;28;19953;-71
2023/01/10 07:12:07;;;;;;;;;;;3.30;99.90;;;;;;5023969;28;20019;-72
2023/01/10 07:14:38;;;;;;;;;;;3.30;99.90;;;;;;5009738;28;19925;-73
2023/01/10 07:17:08;;;;;;;;;;;3.30;99.90;;;;;;5010123;28;19925;-72
2023/01/10 07:19:39;;;;;;;;;;;3.30;99.90;;;;;;5006590;28;20297;-72
2023/01/10 07:22:08;;;;;;;;;;;3.30;99.90;;;;;;5007894;28;20037;-73
2023/01/10 07:24:43;;;;;;;;;;;3.30;99.90;;;;;;5011646;28;19932;-72
2023/01/10 07:27:14;;;;;;;;;;;3.30;99.90;;;;;;5010984;28;19925;-72
2023/01/10 07:29:50;;;;;;;;;;;3.20;99.90;;;;;;5003953;28;19925;-71
2023/01/10 07:32:19;;;;;;;;;;;3.20;99.90;;;;;;5008694;28;19926;-72
2023/01/10 07:34:48;;;;;;;;;;;3.30;99.90;;;;;;5024650;28;19949;-72
2023/01/10 07:37:15;;;;;;;;;;;3.30;99.90;;;;;;5009568;28;20021;-71
2023/01/10 07:39:46;;;;;;;;;;;3.30;99.90;;;;;;5023200;28;19936;-71
2023/01/10 07:42:18;;;;;;;;;;;3.30;99.90;;;;;;5000196;28;19926;-71
2023/01/10 07:44:45;;;;;;;;;;;3.30;99.90;;;;;;5010341;28;19929;-73
2023/01/10 07:47:14;;;;;;;;;;;3.30;99.90;;;;;;5010150;28;19963;-72
2023/01/10 07:50:09;;;;;;;;;;;3.30;99.90;;;;;;5010490;28;19976;-72
2023/01/10 07:52:37;;;;;;;;;;;3.30;99.90;;;;;;5007593;28;19937;-72
2023/01/10 07:55:06;;;;;;;;;;;3.30;99.90;;;;;;5006120;28;19933;-75
2023/01/10 07:57:36;;;;;;;;;;;3.30;99.90;;;;;;4993214;28;19925;-71
2023/01/10 08:00:05;;;;;;;;;;;3.30;99.90;;;;;;5009514;28;20037;-71
2023/01/10 08:02:34;;;;;;;;;;;3.30;99.90;;;;;;5008085;28;19961;-70
2023/01/10 08:05:03;;;;;;;;;;;3.30;99.90;;;;;;4999625;28;19925;-70
2023/01/10 08:07:34;;;;;;;;;;;3.30;99.90;;;;;;5009082;28;19926;-70
2023/01/10 08:10:04;;;;;;;;;;;3.40;99.90;;;;;;5025703;28;19960;-72
2023/01/10 08:12:31;;;;;;;;;;;3.30;99.90;;;;;;5006417;28;19925;-70
2023/01/10 08:15:01;;;;;;;;;;;3.40;99.90;;;;;;5010365;28;19934;-71
2023/01/10 08:17:31;;;;;;;;;;;3.40;99.90;;;;;;5002763;28;19929;-71
2023/01/10 08:20:00;;;;;;;;;;;3.40;99.90;;;;;;5006935;28;19925;-70
2023/01/10 08:22:28;;;;;;;;;;;3.40;99.90;;;;;;5024115;28;19933;-70
2023/01/10 08:25:03;;;;;;;;;;;3.50;99.90;;;;;;5025516;28;19925;-71
2023/01/10 08:27:34;;;;;;;;;;;3.50;99.90;;;;;;5002288;28;19925;-70
2023/01/10 08:30:01;;;;;;;;;;;3.50;99.90;;;;;;5016857;28;19932;-70
2023/01/10 08:32:31;;;;;;;;;;;3.50;99.90;;;;;;5008817;28;19925;-72
2023/01/10 08:35:00;;;;;;;;;;;3.50;99.90;;;;;;5002245;28;19926;-73
2023/01/10 08:37:29;;;;;;;;;;;3.50;99.90;;;;;;5007543;28;19926;-72
2023/01/10 08:39:58;;;;;;;;;;;3.60;99.90;;;;;;5009418;28;19932;-70
2023/01/10 08:42:27;;;;;;;;;;;3.60;99.90;;;;;;5004746;28;19933;-71
2023/01/10 08:44:57;;;;;;;;;;;3.70;99.90;;;;;;5009527;28;19933;-70
2023/01/10 08:47:27;;;;;;;;;;;3.70;99.90;;;;;;5006703;28;19929;-71
2023/01/10 08:49:58;;;;;;;;;;;3.80;99.90;;;;;;5005296;28;19930;-71
2023/01/10 08:52:27;;;;;;;;;;;3.80;99.90;;;;;;5005396;28;19960;-72
2023/01/10 08:54:56;;;;;;;;;;;3.80;99.90;;;;;;5007619;28;19938;-71
2023/01/10 08:57:26;;;;;;;;;;;3.80;99.90;;;;;;5005187;28;19925;-71
2023/01/10 08:59:57;;;;;;;;;;;3.80;99.90;;;;;;5008027;28;23352;-71
2023/01/10 09:02:27;;;;;;;;;;;3.80;99.90;;;;;;5006217;28;19941;-71
2023/01/10 09:04:56;;;;;;;;;;;3.80;99.90;;;;;;5009019;28;20696;-71
2023/01/10 09:07:25;;;;;;;;;;;3.80;99.90;;;;;;5009341;28;19925;-73
2023/01/10 09:09:54;;;;;;;;;;;3.90;99.90;;;;;;5017860;28;19930;-73
2023/01/10 09:15:11;;;;;;;;;;;3.80;99.90;;;;;;4999748;28;20284;-75
2023/01/10 09:17:40;;;;;;;;;;;3.80;99.90;;;;;;5007661;28;19925;-73
2023/01/10 09:20:09;;;;;;;;;;;3.80;99.90;;;;;;5008028;28;19926;-74
2023/01/10 09:22:39;;;;;;;;;;;3.80;99.90;;;;;;5034801;28;19925;-69
2023/01/10 09:25:33;;;;;;;;;;;3.80;99.90;;;;;;5042525;28;19932;-72
2023/01/10 09:28:03;;;;;;;;;;;3.90;99.90;;;;;;5020653;28;19957;-73
2023/01/10 09:30:34;;;;;;;;;;;3.80;99.90;;;;;;5007302;28;20347;-72
2023/01/10 09:33:05;;;;;;;;;;;3.80;99.90;;;;;;5010504;28;19934;-72
2023/01/10 09:35:35;;;;;;;;;;;3.90;99.90;;;;;;5006807;28;19948;-73
2023/01/10 09:38:13;;;;;;;;;;;3.90;99.90;;;;;;5006772;28;19925;-73
2023/01/10 09:41:16;;;;;;;;;;;3.90;99.90;;;;;;5002649;28;20178;-73
2023/01/10 09:43:53;;;;;;;;;;;3.90;99.90;;;;;;5021909;28;19929;-73
2023/01/10 09:46:37;;;;;;;;;;;3.90;99.90;;;;;;5005366;28;19926;-73
2023/01/10 09:49:07;;;;;;;;;;;3.90;99.90;;;;;;5020623;28;19988;-73
2023/01/10 09:51:36;;;;;;;;;;;3.90;99.90;;;;;;5004149;28;20392;-73
2023/01/10 09:54:05;;;;;;;;;;;3.90;99.90;;;;;;5021203;28;19925;-73
2023/01/10 09:56:34;;;;;;;;;;;3.90;99.90;;;;;;5016237;28;20381;-73
2023/01/10 09:59:04;;;;;;;;;;;3.90;99.90;;;;;;5003655;28;19929;-71
2023/01/10 10:01:36;;;;;;;;;;;3.90;99.90;;;;;;5005629;28;20016;-73
2023/01/10 10:04:11;;;;;;;;;;;3.90;99.90;;;;;;4984466;28;19926;-73
2023/01/10 10:06:39;;;;;;;;;;;4.00;99.90;;;;;;4981819;28;19926;-72
2023/01/10 10:09:12;;;;;;;;;;;4.00;99.90;;;;;;4988341;28;20281;-72
2023/01/10 10:11:46;;;;;;;;;;;4.00;99.90;;;;;;5020330;28;20032;-73
2023/01/10 10:14:30;;;;;;;;;;;4.00;99.90;;;;;;5006654;28;19933;-72
2023/01/10 10:17:07;;;;;;;;;;;4.10;99.90;;;;;;4999846;28;20069;-73
2023/01/10 10:19:41;;;;;;;;;;;4.10;99.90;;;;;;5016582;28;19930;-73
2023/01/10 10:22:29;;;;;;;;;;;4.10;99.90;;;;;;4999511;28;20016;-73
2023/01/10 10:25:04;;;;;;;;;;;4.00;99.90;;;;;;5005556;28;20008;-73
2023/01/10 10:27:55;;;;;;;;;;;4.00;99.90;;;;;;5005687;28;20474;-71
2023/01/10 10:30:50;;;;;;;;;;;4.10;99.90;;;;;;5010846;28;19933;-73
2023/01/10 10:33:45;;;;;;;;;;;4.00;99.90;;;;;;5025662;28;20379;-73
2023/01/10 10:36:19;;;;;;;;;;;4.00;99.90;;;;;;5027392;28;19925;-73
2023/01/10 10:38:49;;;;;;;;;;;4.00;99.90;;;;;;5022993;28;19976;-73
2023/01/10 10:41:27;;;;;;;;;;;4.00;99.90;;;;;;5021675;28;19983;-71
2023/01/10 10:44:03;;;;;;;;;;;4.10;99.90;;;;;;5011450;28;19933;-72
2023/01/10 10:46:34;;;;;;;;;;;4.10;99.90;;;;;;5009482;28;19932;-71
2023/01/10 10:49:14;;;;;;;;;;;4.00;99.90;;;;;;5003998;28;20011;-70
2023/01/10 10:51:46;;;;;;;;;;;4.10;99.90;;;;;;5010302;28;20453;-72
2023/01/10 10:54:15;;;;;;;;;;;4.20;99.90;;;;;;5009185;28;19932;-73
2023/01/10 10:56:46;;;;;;;;;;;4.20;99.90;;;;;;5024700;28;19926;-72
2023/01/10 10:59:18;;;;;;;;;;;4.20;99.90;;;;;;5004048;28;20025;-72
2023/01/10 11:01:49;;;;;;;;;;;4.20;99.90;;;;;;5009432;28;19937;-72
2023/01/10 11:04:22;;;;;;;;;;;4.20;99.90;;;;;;5010255;28;20350;-72
2023/01/10 11:06:55;;;;;;;;;;;4.20;99.90;;;;;;5008165;28;20020;-73
2023/01/10 11:09:43;;;;;;;;;;;4.20;99.90;;;;;;5022859;28;19925;-72
2023/01/10 11:12:16;;;;;;;;;;;4.30;99.90;;;;;;5007230;28;19926;-71
2023/01/10 11:14:47;;;;;;;;;;;4.30;99.90;;;;;;5006275;28;19934;-73
2023/01/10 11:17:26;;;;;;;;;;;4.40;99.90;;;;;;5008792;28;19941;-73
2023/01/10 11:19:54;;;;;;;;;;;4.40;99.90;;;;;;5025080;28;20375;-72
2023/01/10 11:22:26;;;;;;;;;;;4.50;99.90;;;;;;5010270;28;19926;-73
2023/01/10 11:25:01;;;;;;;;;;;4.50;99.90;;;;;;5008852;28;19937;-72
2023/01/10 11:27:45;;;;;;;;;;;4.60;99.90;;;;;;5009168;28;19929;-73
2023/01/10 11:30:25;;;;;;;;;;;4.60;99.90;;;;;;5010400;28;19925;-73
2023/01/10 11:33:01;;;;;;;;;;;4.60;99.90;;;;;;5011734;28;20023;-73
2023/01/10 11:35:35;;;;;;;;;;;4.60;99.90;;;;;;5010752;28;20304;-72
2023/01/10 11:38:23;;;;;;;;;;;4.70;99.90;;;;;;5011301;28;19980;-74
2023/01/10 11:40:55;;;;;;;;;;;4.60;99.90;;;;;;5008221;28;20290;-72
2023/01/10 11:43:35;;;;;;;;;;;4.70;99.90;;;;;;5008709;28;19925;-72
2023/01/10 11:46:04;;;;;;;;;;;4.70;99.90;;;;;;5007425;28;20285;-73
2023/01/10 11:48:51;;;;;;;;;;;4.70;99.90;;;;;;5007891;28;20793;-72
2023/01/10 11:51:24;;;;;;;;;;;4.60;99.90;;;;;;5008845;28;19926;-73
2023/01/10 11:53:58;;;;;;;;;;;4.70;99.90;;;;;;5006912;28;19933;-72
2023/01/10 11:56:30;;;;;;;;;;;4.70;99.90;;;;;;5022648;28;19933;-72
2023/01/10 11:59:08;;;;;;;;;;;4.80;99.90;;;;;;5005980;28;20299;-73
2023/01/10 12:01:46;;;;;;;;;;;4.70;99.90;;;;;;5004842;28;19940;-73
2023/01/10 12:04:17;;;;;;;;;;;4.70;99.90;;;;;;4992781;28;19931;-73
2023/01/10 12:06:51;;;;;;;;;;;4.70;99.90;;;;;;5005486;28;20011;-73
2023/01/10 12:09:38;;;;;;;;;;;4.70;99.90;;;;;;5010610;28;19972;-71
2023/01/10 12:12:12;;;;;;;;;;;4.70;99.90;;;;;;5019940;28;19940;-73
2023/01/10 12:14:40;;;;;;;;;;;4.70;99.90;;;;;;4993817;28;19929;-73
2023/01/10 12:17:22;;;;;;;;;;;4.70;99.90;;;;;;4990808;28;19965;-73
2023/01/10 12:22:50;;;;;;;;;;;4.70;99.90;;;;;;5011106;28;20030;-70
2023/01/10 12:25:20;;;;;;;;;;;4.70;99.90;;;;;;5027015;28;20496;-73
2023/01/10 12:27:50;;;;;;;;;;;4.70;99.90;;;;;;5022356;28;20309;-73
2023/01/10 12:30:34;;;;;;;;;;;4.80;99.90;;;;;;5021233;28;19929;-72
2023/01/10 12:33:05;;;;;;;;;;;4.90;99.90;;;;;;5007363;28;20358;-73
2023/01/10 12:35:40;;;;;;;;;;;4.90;99.90;;;;;;5008588;28;19976;-70
2023/01/10 12:44:09;;;;;;;;;;;4.90;99.90;;;;;;5019470;28;19930;-73
2023/01/10 12:44:10;;;;;;;;;;;4.90;99.90;;;;;;5021257;28;19929;-73
2023/01/10 12:47:13;;;;;;;;;;;5.00;99.90;;;;;;5020193;28;20316;-73
2023/01/10 12:49:45;;;;;;;;;;;5.00;99.90;;;;;;5021458;28;20388;-73
2023/01/10 12:52:30;;;;;;;;;;;5.00;99.90;;;;;;5022678;28;19925;-72
2023/01/10 12:55:24;;;;;;;;;;;5.00;99.90;;;;;;5018332;28;20737;-73
2023/01/10 12:57:56;;;;;;;;;;;5.00;99.90;;;;;;5019090;28;19937;-71
2023/01/10 13:00:34;;;;;;;;;;;5.00;99.90;;;;;;5018762;28;20400;-73
2023/01/10 13:03:10;;;;;;;;;;;5.10;99.90;;;;;;5006827;28;20020;-73
2023/01/10 13:05:39;;;;;;;;;;;5.10;99.90;;;;;;5007820;28;20489;-73
2023/01/10 13:08:13;;;;;;;;;;;5.10;99.90;;;;;;4989654;28;20388;-73
2023/01/10 13:10:44;;;;;;;;;;;5.10;99.90;;;;;;4996822;28;20012;-71
2023/01/10 13:13:31;;;;;;;;;;;5.20;99.90;;;;;;5018433;28;20008;-73
2023/01/10 13:16:05;;;;;;;;;;;5.30;99.90;;;;;;5000774;28;20435;-73
2023/01/10 13:18:34;;;;;;;;;;;5.30;99.90;;;;;;5021207;28;19925;-72
2023/01/10 13:21:14;;;;;;;;;;;5.40;99.90;;;;;;5015964;28;19926;-73
2023/01/10 13:23:52;;;;;;;;;;;5.50;99.90;;;;;;5000007;28;20404;-73
2023/01/10 13:26:19;;;;;;;;;;;5.40;99.90;;;;;;5019936;28;20633;-70
2023/01/10 13:28:51;;;;;;;;;;;5.40;99.90;;;;;;5004332;28;19948;-71
2023/01/10 13:31:25;;;;;;;;;;;5.30;99.90;;;;;;5001641;28;19934;-73
2023/01/10 13:34:01;;;;;;;;;;;5.30;99.90;;;;;;5004930;28;19926;-73
2023/01/10 13:36:46;;;;;;;;;;;5.30;99.90;;;;;;5005020;28;20369;-73
2023/01/10 13:39:23;;;;;;;;;;;5.30;99.90;;;;;;5021542;28;20411;-73
2023/01/10 13:45:00;;;;;;;;;;;5.40;99.90;;;;;;5007809;28;20376;-72
2023/01/10 13:47:38;;;;;;;;;;;5.40;99.90;;;;;;5006342;28;19975;-73
2023/01/10 13:50:24;;;;;;;;;;;5.40;99.90;;;;;;5003100;28;20372;-72
2023/01/10 13:53:06;;;;;;;;;;;5.50;99.90;;;;;;5007068;28;20017;-72
2023/01/10 13:55:38;;;;;;;;;;;5.60;99.90;;;;;;5004279;28;20022;-72
2023/01/10 13:58:07;;;;;;;;;;;5.70;99.90;;;;;;5003515;28;20400;-73
2023/01/10 14:03:40;;;;;;;;;;;5.70;99.90;;;;;;5014367;28;19932;-72
2023/01/10 14:06:18;;;;;;;;;;;5.60;99.90;;;;;;5028438;28;19926;-72
2023/01/10 14:08:50;;;;;;;;;;;5.60;99.90;;;;;;5025276;28;20404;-73
2023/01/10 14:11:29;;;;;;;;;;;5.60;99.90;;;;;;5007795;28;20377;-73
2023/01/10 14:14:01;;;;;;;;;;;5.50;99.90;;;;;;5022299;28;19925;-72
2023/01/10 14:16:41;;;;;;;;;;;5.40;99.90;;;;;;5007555;28;20029;-73
2023/01/10 14:19:23;;;;;;;;;;;5.30;99.90;;;;;;5012875;28;20416;-73
2023/01/10 14:21:55;;;;;;;;;;;5.30;99.90;;;;;;5007888;28;20392;-73
2023/01/10 14:24:35;;;;;;;;;;;5.20;99.90;;;;;;5013428;28;20408;-73
2023/01/10 14:27:08;;;;;;;;;;;5.10;99.90;;;;;;5013933;28;19973;-72
2023/01/10 14:29:45;;;;;;;;;;;5.10;99.90;;;;;;5012654;28;19936;-73
2023/01/10 14:32:25;;;;;;;;;;;5.00;99.90;;;;;;5007433;28;20385;-73
2023/01/10 14:34:54;;;;;;;;;;;5.00;99.90;;;;;;5009241;28;19972;-71
2023/01/10 14:37:36;;;;;;;;;;;4.90;99.90;;;;;;4994499;28;19933;-74
2023/01/10 14:40:09;;;;;;;;;;;4.80;99.90;;;;;;5001948;28;19968;-73
2023/01/10 14:42:39;;;;;;;;;;;4.80;99.90;;;;;;4995070;28;19957;-73
2023/01/10 14:45:18;;;;;;;;;;;4.80;99.90;;;;;;5010241;28;19944;-72
2023/01/10 14:47:48;;;;;;;;;;;4.80;99.90;;;;;;4993200;28;19925;-73
2023/01/10 14:50:31;;;;;;;;;;;4.80;99.90;;;;;;5024909;28;19976;-70
2023/01/10 14:52:59;;;;;;;;;;;4.80;99.90;;;;;;5011870;28;19929;-72
2023/01/10 14:55:28;;;;;;;;;;;4.80;99.90;;;;;;5008249;28;20052;-72
2023/01/10 14:58:01;;;;;;;;;;;4.80;99.90;;;;;;5024223;28;19976;-72
2023/01/10 15:00:39;;;;;;;;;;;4.80;99.90;;;;;;5027368;28;19925;-73
2023/01/10 15:03:15;;;;;;;;;;;4.80;99.90;;;;;;5010472;28;19930;-70
2023/01/10 15:05:46;;;;;;;;;;;4.70;99.90;;;;;;5010868;28;20004;-72
2023/01/10 15:08:22;;;;;;;;;;;4.70;99.90;;;;;;5024615;28;19957;-73
2023/01/10 15:10:59;;;;;;;;;;;4.70;99.90;;;;;;5008553;28;20103;-72
2023/01/10 15:13:29;;;;;;;;;;;4.70;99.90;;;;;;5012578;28;19925;-72
2023/01/10 15:15:59;;;;;;;;;;;4.70;99.90;;;;;;5046137;28;20000;-73
2023/01/10 15:18:40;;;;;;;;;;;4.70;99.90;;;;;;5039935;28;19957;-71
2023/01/10 15:21:13;;;;;;;;;;;4.70;99.90;;;;;;5022777;28;19972;-71
2023/01/10 15:23:45;;;;;;;;;;;4.70;99.90;;;;;;5009932;28;20052;-71
2023/01/10 15:26:16;;;;;;;;;;;4.70;99.90;;;;;;5020206;28;19925;-71
2023/01/10 15:28:48;;;;;;;;;;;4.70;99.90;;;;;;5005352;28;19934;-71
2023/01/10 15:31:18;;;;;;;;;;;4.70;99.90;;;;;;5007184;28;19983;-71
2023/01/10 15:33:55;;;;;;;;;;;4.60;99.90;;;;;;5016139;28;19929;-71